createdAt,value
2018-03-22T00:00:09.735Z,4.6
2018-03-22T00:01:12.152Z,4.6
2018-03-22T00:02:14.572Z,4.6
2018-03-22T00:03:17.303Z,4.6
2018-03-22T00:04:19.722Z,4.5
2018-03-22T00:05:22.428Z,4.6
2018-03-22T00:06:24.857Z,4.6
2018-03-22T00:07:27.283Z,4.8
2018-03-22T00:08:29.720Z,4.6
2018-03-22T00:09:32.154Z,4.6
2018-03-22T00:10:34.572Z,4.7
2018-03-22T00:11:37.297Z,4.6
2018-03-22T00:12:39.726Z,4.6
2018-03-22T00:13:42.143Z,4.5
2018-03-22T00:14:44.573Z,4.5
2018-03-22T00:15:47.014Z,4.6
2018-03-22T00:16:49.433Z,4.6
2018-03-22T00:17:51.877Z,4.6
2018-03-22T00:18:54.295Z,4.5
2018-03-22T00:19:57.038Z,4.5
2018-03-22T00:20:59.471Z,4.5
2018-03-22T00:22:01.893Z,4.5
2018-03-22T00:23:04.778Z,4.5
2018-03-22T00:24:07.298Z,4.5
2018-03-22T00:25:10.031Z,4.6
2018-03-22T00:26:12.520Z,4.5
2018-03-22T00:27:15.200Z,4.6
2018-03-22T00:28:17.921Z,4.7
2018-03-22T00:29:20.350Z,4.6
2018-03-22T00:30:22.774Z,4.6
2018-03-22T00:31:25.194Z,4.5
2018-03-22T00:32:27.696Z,4.6
2018-03-22T00:33:30.123Z,4.5
2018-03-22T00:34:32.595Z,4.5
2018-03-22T00:35:34.982Z,4.6
2018-03-22T00:36:37.445Z,4.7
2018-03-22T00:37:39.865Z,4.6
2018-03-22T00:38:42.286Z,4.6
2018-03-22T00:39:45.017Z,4.5
2018-03-22T00:40:47.430Z,4.5
2018-03-22T00:41:49.845Z,4.6
2018-03-22T00:42:52.564Z,4.5
2018-03-22T00:43:54.989Z,4.6
2018-03-22T00:44:57.422Z,4.6
2018-03-22T00:45:59.850Z,4.7
2018-03-22T00:47:02.582Z,4.6
2018-03-22T00:48:05.004Z,4.6
2018-03-22T00:49:07.724Z,4.6
2018-03-22T00:50:10.170Z,4.6
2018-03-22T00:51:12.673Z,4.5
2018-03-22T00:52:15.106Z,4.5
2018-03-22T00:53:17.875Z,4.5
2018-03-22T00:54:20.304Z,4.5
2018-03-22T00:55:22.734Z,4.6
2018-03-22T00:56:25.448Z,4.6
2018-03-22T00:57:27.888Z,4.8
2018-03-22T00:58:30.316Z,4.5
2018-03-22T00:59:33.019Z,4.5
2018-03-22T01:00:35.455Z,4.6
2018-03-22T01:01:37.892Z,4.6
2018-03-22T01:02:40.316Z,4.5
2018-03-22T01:03:42.752Z,4.5
2018-03-22T01:04:45.196Z,4.5
2018-03-22T01:05:47.616Z,4.7
2018-03-22T01:06:50.337Z,4.6
2018-03-22T01:07:52.756Z,4.6
2018-03-22T01:08:55.475Z,4.5
2018-03-22T01:09:57.893Z,4.6
2018-03-22T01:11:00.610Z,4.5
2018-03-22T01:12:03.398Z,4.5
2018-03-22T01:13:05.815Z,4.5
2018-03-22T01:14:08.241Z,4.6
2018-03-22T01:15:10.960Z,4.5
2018-03-22T01:16:13.404Z,4.7
2018-03-22T01:17:15.845Z,4.6
2018-03-22T01:18:18.266Z,4.7
2018-03-22T01:19:20.692Z,4.5
2018-03-22T01:20:23.454Z,4.6
2018-03-22T01:21:25.880Z,4.6
2018-03-22T01:22:28.300Z,4.5
2018-03-22T01:23:30.746Z,4.5
2018-03-22T01:24:33.189Z,4.5
2018-03-22T01:25:35.897Z,4.6
2018-03-22T01:26:38.337Z,4.6
2018-03-22T01:27:40.791Z,4.5
2018-03-22T01:28:43.212Z,4.6
2018-03-22T01:29:45.920Z,4.6
2018-03-22T01:30:48.352Z,4.6
2018-03-22T01:31:50.784Z,4.6
2018-03-22T01:32:53.207Z,4.5
2018-03-22T01:33:55.620Z,4.5
2018-03-22T01:34:58.366Z,4.5
2018-03-22T01:36:00.794Z,4.7
2018-03-22T01:37:03.207Z,4.6
2018-03-22T01:38:05.628Z,4.7
2018-03-22T01:39:08.061Z,4.6
2018-03-22T01:40:10.518Z,4.6
2018-03-22T01:41:12.933Z,4.5
2018-03-22T01:42:15.386Z,4.5
2018-03-22T01:43:17.816Z,4.6
2018-03-22T01:44:20.532Z,4.6
2018-03-22T01:45:22.955Z,4.6
2018-03-22T01:46:25.384Z,4.7
2018-03-22T01:47:27.803Z,4.6
2018-03-22T01:48:30.240Z,4.5
2018-03-22T01:49:32.659Z,4.5
2018-03-22T01:50:35.070Z,4.5
2018-03-22T01:51:37.506Z,4.5
2018-03-22T01:52:39.920Z,4.6
2018-03-22T01:53:42.961Z,4.6
2018-03-22T01:54:45.666Z,4.6
2018-03-22T01:55:48.098Z,4.6
2018-03-22T01:56:50.520Z,4.6
2018-03-22T01:57:52.950Z,4.5
2018-03-22T01:58:55.688Z,4.6
2018-03-22T01:59:58.119Z,4.6
2018-03-22T02:01:00.541Z,4.5
2018-03-22T02:02:02.962Z,4.6
2018-03-22T02:03:05.390Z,4.5
2018-03-22T02:04:07.879Z,4.6
2018-03-22T02:05:10.304Z,4.6
2018-03-22T02:06:12.729Z,4.7
2018-03-22T02:07:15.151Z,4.5
2018-03-22T02:08:17.589Z,4.6
2018-03-22T02:09:20.002Z,4.5
2018-03-22T02:10:22.742Z,4.5
2018-03-22T02:11:25.176Z,4.5
2018-03-22T02:12:27.597Z,4.5
2018-03-22T02:13:30.308Z,4.6
2018-03-22T02:14:32.730Z,4.6
2018-03-22T02:15:35.144Z,4.6
2018-03-22T02:16:37.586Z,4.6
2018-03-22T02:17:40.003Z,4.7
2018-03-22T02:18:42.719Z,4.5
2018-03-22T02:19:45.162Z,4.5
2018-03-22T02:20:47.870Z,4.5
2018-03-22T02:21:50.582Z,4.5
2018-03-22T02:22:52.997Z,4.6
2018-03-22T02:23:55.413Z,4.6
2018-03-22T02:24:58.362Z,4.7
2018-03-22T02:26:01.092Z,4.7
2018-03-22T02:27:03.520Z,4.6
2018-03-22T02:28:05.946Z,4.6
2018-03-22T02:29:08.651Z,4.6
2018-03-22T02:30:11.086Z,4.5
2018-03-22T02:31:13.561Z,4.5
2018-03-22T02:32:15.974Z,4.5
2018-03-22T02:33:18.396Z,4.5
2018-03-22T02:34:20.820Z,4.5
2018-03-22T02:35:23.833Z,4.6
2018-03-22T02:36:26.338Z,4.6
2018-03-22T02:37:28.770Z,4.6
2018-03-22T02:38:31.199Z,4.7
2018-03-22T02:39:33.638Z,4.6
2018-03-22T02:40:36.053Z,4.5
2018-03-22T02:41:38.470Z,4.5
2018-03-22T02:42:41.207Z,4.5
2018-03-22T02:43:43.926Z,4.6
2018-03-22T02:44:46.644Z,4.5
2018-03-22T02:45:49.075Z,4.5
2018-03-22T02:46:51.493Z,4.5
2018-03-22T02:47:53.922Z,4.7
2018-03-22T02:48:56.945Z,4.5
2018-03-22T02:49:59.631Z,4.5
2018-03-22T02:51:02.223Z,4.6
2018-03-22T02:52:04.960Z,4.6
2018-03-22T02:53:07.380Z,4.5
2018-03-22T02:54:09.819Z,4.7
2018-03-22T02:55:12.228Z,4.5
2018-03-22T02:56:14.965Z,4.5
2018-03-22T02:57:17.391Z,4.4
2018-03-22T02:58:20.128Z,4.5
2018-03-22T02:59:22.842Z,4.6
2018-03-22T03:00:25.292Z,4.6
2018-03-22T03:01:27.684Z,4.6
2018-03-22T03:02:30.115Z,4.7
2018-03-22T03:03:32.536Z,4.5
2018-03-22T03:04:35.301Z,4.5
2018-03-22T03:05:38.068Z,4.5
2018-03-22T03:06:40.791Z,4.5
2018-03-22T03:07:43.502Z,4.5
2018-03-22T03:08:46.517Z,4.5
2018-03-22T03:09:48.940Z,4.5
2018-03-22T03:10:51.403Z,4.5
2018-03-22T03:11:53.827Z,4.5
2018-03-22T03:12:56.257Z,4.4
2018-03-22T03:13:58.672Z,4.5
2018-03-22T03:15:01.096Z,4.7
2018-03-22T03:16:04.127Z,4.6
2018-03-22T03:17:06.628Z,4.9
2018-03-22T03:18:09.062Z,4.5
2018-03-22T03:19:12.054Z,4.5
2018-03-22T03:20:14.473Z,4.5
2018-03-22T03:21:17.206Z,4.5
2018-03-22T03:22:19.633Z,4.5
2018-03-22T03:23:22.043Z,4.5
2018-03-22T03:24:24.472Z,4.5
2018-03-22T03:25:26.896Z,4.4
2018-03-22T03:26:29.315Z,4.5
2018-03-22T03:27:31.742Z,4.5
2018-03-22T03:28:34.153Z,4.5
2018-03-22T03:29:36.857Z,4.5
2018-03-22T03:30:39.292Z,4.5
2018-03-22T03:31:42.007Z,4.5
2018-03-22T03:32:44.432Z,4.5
2018-03-22T03:33:46.859Z,4.6
2018-03-22T03:34:49.292Z,4.5
2018-03-22T03:35:52.001Z,4.5
2018-03-22T03:36:54.422Z,4.6
2018-03-22T03:37:56.851Z,4.4
2018-03-22T03:38:59.270Z,4.5
2018-03-22T03:40:01.693Z,4.6
2018-03-22T03:41:04.406Z,4.6
2018-03-22T03:42:06.834Z,4.5
2018-03-22T03:43:09.259Z,4.5
2018-03-22T03:44:11.744Z,4.5
2018-03-22T03:45:14.459Z,4.5
2018-03-22T03:46:16.876Z,4.6
2018-03-22T03:47:19.306Z,4.6
2018-03-22T03:48:21.726Z,4.6
2018-03-22T03:49:24.424Z,4.6
2018-03-22T03:50:27.215Z,4.4
2018-03-22T03:51:29.636Z,4.5
2018-03-22T03:52:32.068Z,4.4
2018-03-22T03:53:34.496Z,4.6
2018-03-22T03:54:36.902Z,4.6
2018-03-22T03:55:39.334Z,4.5
2018-03-22T03:56:41.760Z,4.6
2018-03-22T03:57:44.755Z,4.4
2018-03-22T03:58:47.182Z,4.6
2018-03-22T03:59:49.607Z,4.6
2018-03-22T04:00:52.024Z,4.6
2018-03-22T04:01:54.469Z,4.5
2018-03-22T04:02:56.880Z,4.5
2018-03-22T04:03:59.351Z,4.5
2018-03-22T04:05:02.059Z,4.4
2018-03-22T04:06:04.764Z,4.6
2018-03-22T04:07:07.489Z,4.5
2018-03-22T04:08:09.914Z,4.7
2018-03-22T04:09:12.978Z,4.5
2018-03-22T04:10:15.401Z,4.5
2018-03-22T04:11:18.125Z,4.5
2018-03-22T04:12:20.541Z,4.7
2018-03-22T04:13:22.969Z,4.5
2018-03-22T04:14:25.988Z,4.5
2018-03-22T04:15:28.473Z,4.6
2018-03-22T04:16:30.910Z,4.6
2018-03-22T04:17:33.348Z,4.5
2018-03-22T04:18:35.772Z,4.4
2018-03-22T04:19:38.201Z,4.5
2018-03-22T04:20:40.620Z,4.5
2018-03-22T04:21:43.052Z,4.6
2018-03-22T04:22:45.473Z,4.8
2018-03-22T04:23:47.892Z,4.6
2018-03-22T04:24:50.306Z,4.4
2018-03-22T04:25:52.736Z,4.5
2018-03-22T04:26:55.140Z,4.5
2018-03-22T04:27:57.573Z,4.4
2018-03-22T04:28:59.988Z,4.6
2018-03-22T04:30:02.499Z,4.7
2018-03-22T04:31:05.240Z,4.6
2018-03-22T04:32:07.658Z,4.6
2018-03-22T04:33:10.080Z,4.5
2018-03-22T04:34:12.505Z,4.7
2018-03-22T04:35:15.249Z,4.6
2018-03-22T04:36:17.970Z,4.5
2018-03-22T04:37:20.665Z,4.6
2018-03-22T04:38:23.088Z,4.6
2018-03-22T04:39:25.729Z,4.5
2018-03-22T04:40:28.154Z,4.6
2018-03-22T04:41:31.156Z,4.6
2018-03-22T04:42:33.577Z,4.6
2018-03-22T04:43:35.998Z,4.6
2018-03-22T04:44:38.718Z,4.7
2018-03-22T04:45:41.143Z,4.6
2018-03-22T04:46:43.555Z,4.7
2018-03-22T04:47:46.042Z,4.6
2018-03-22T04:48:48.476Z,4.7
2018-03-22T04:49:51.194Z,4.6
2018-03-22T04:50:53.612Z,4.6
2018-03-22T04:51:56.022Z,4.5
2018-03-22T04:52:58.441Z,4.6
2018-03-22T04:54:00.893Z,4.8
2018-03-22T04:55:03.715Z,4.6
2018-03-22T04:56:06.141Z,4.7
2018-03-22T04:57:08.569Z,4.6
2018-03-22T04:58:10.993Z,4.7
2018-03-22T04:59:13.430Z,4.5
2018-03-22T05:00:15.853Z,4.6
2018-03-22T05:01:18.262Z,4.5
2018-03-22T05:02:20.978Z,4.7
2018-03-22T05:03:23.609Z,4.6
2018-03-22T05:04:26.325Z,4.6
2018-03-22T05:05:28.744Z,4.6
2018-03-22T05:06:31.478Z,4.6
2018-03-22T05:07:33.908Z,4.7
2018-03-22T05:08:36.323Z,4.8
2018-03-22T05:09:38.746Z,4.5
2018-03-22T05:10:41.458Z,4.6
2018-03-22T05:11:43.871Z,4.6
2018-03-22T05:12:46.303Z,4.5
2018-03-22T05:14:18.782Z,4.6
2018-03-22T05:15:21.198Z,4.6
2018-03-22T05:16:23.669Z,4.7
2018-03-22T05:17:26.132Z,4.6
2018-03-22T05:18:28.891Z,4.7
2018-03-22T05:19:31.324Z,4.6
2018-03-22T05:20:33.747Z,4.7
2018-03-22T05:21:36.228Z,4.6
2018-03-22T05:22:38.690Z,4.5
2018-03-22T05:23:41.125Z,4.5
2018-03-22T05:24:43.540Z,4.7
2018-03-22T05:25:45.963Z,4.7
2018-03-22T05:26:48.730Z,4.7
2018-03-22T05:27:51.169Z,4.7
2018-03-22T05:28:53.585Z,4.6
2018-03-22T05:29:56.001Z,4.5
2018-03-22T05:30:58.427Z,4.6
2018-03-22T05:32:00.858Z,4.6
2018-03-22T05:33:03.291Z,4.6
2018-03-22T05:34:05.720Z,4.6
2018-03-22T05:35:08.137Z,4.6
2018-03-22T05:36:10.685Z,4.5
2018-03-22T05:37:13.100Z,4.6
2018-03-22T05:38:15.532Z,4.6
2018-03-22T05:39:17.950Z,4.6
2018-03-22T05:40:20.371Z,4.6
2018-03-22T05:41:22.793Z,4.6
2018-03-22T05:42:25.215Z,4.5
2018-03-22T05:43:27.932Z,4.7
2018-03-22T05:44:30.651Z,4.6
2018-03-22T05:45:33.649Z,4.7
2018-03-22T05:46:36.073Z,4.7
2018-03-22T05:47:38.490Z,4.6
2018-03-22T05:48:40.923Z,4.6
2018-03-22T05:49:43.639Z,4.5
2018-03-22T05:50:46.065Z,4.6
2018-03-22T05:51:48.491Z,4.6
2018-03-22T05:52:50.922Z,4.7
2018-03-22T05:53:53.344Z,4.6
2018-03-22T05:54:56.048Z,4.5
2018-03-22T05:55:58.465Z,4.6
2018-03-22T05:57:00.878Z,4.6
2018-03-22T05:58:03.309Z,4.5
2018-03-22T05:59:05.732Z,4.8
2018-03-22T06:00:08.153Z,4.7
2018-03-22T06:01:10.576Z,4.6
2018-03-22T06:02:12.999Z,4.6
2018-03-22T06:03:15.433Z,4.6
2018-03-22T06:04:17.853Z,4.7
2018-03-22T06:05:20.280Z,4.5
2018-03-22T06:06:22.697Z,4.7
2018-03-22T06:07:25.400Z,4.6
2018-03-22T06:08:27.831Z,4.4
2018-03-22T06:09:30.539Z,4.5
2018-03-22T06:10:32.956Z,4.6
2018-03-22T06:11:35.394Z,4.5
2018-03-22T06:12:37.808Z,4.6
2018-03-22T06:13:40.238Z,4.6
2018-03-22T06:14:42.655Z,4.7
2018-03-22T06:15:45.369Z,4.7
2018-03-22T06:16:48.097Z,4.7
2018-03-22T06:17:50.531Z,4.6
2018-03-22T06:18:53.241Z,4.7
2018-03-22T06:19:55.957Z,4.6
2018-03-22T06:20:58.377Z,4.6
2018-03-22T06:22:01.089Z,4.5
2018-03-22T06:23:03.508Z,4.6
2018-03-22T06:24:06.208Z,4.6
2018-03-22T06:25:08.636Z,4.5
2018-03-22T06:26:11.353Z,4.6
2018-03-22T06:27:13.773Z,4.7
2018-03-22T06:28:16.209Z,4.6
2018-03-22T06:29:18.919Z,4.6
2018-03-22T06:30:21.351Z,4.6
2018-03-22T06:31:23.779Z,4.6
2018-03-22T06:32:26.514Z,4.6
2018-03-22T06:33:29.216Z,4.6
2018-03-22T06:34:31.642Z,4.5
2018-03-22T06:35:34.063Z,4.5
2018-03-22T06:36:36.497Z,4.5
2018-03-22T06:37:38.929Z,4.6
2018-03-22T06:38:41.352Z,4.7
2018-03-22T06:39:43.781Z,4.5
2018-03-22T06:40:46.207Z,4.6
2018-03-22T06:41:48.625Z,4.8
2018-03-22T06:42:51.051Z,4.5
2018-03-22T06:43:53.462Z,4.8
2018-03-22T06:44:56.173Z,4.6
2018-03-22T06:45:58.606Z,4.6
2018-03-22T06:47:01.320Z,4.6
2018-03-22T06:48:03.748Z,4.5
2018-03-22T06:49:06.176Z,4.7
2018-03-22T06:50:08.590Z,4.6
2018-03-22T06:51:11.028Z,4.5
2018-03-22T06:52:13.457Z,4.5
2018-03-22T06:53:15.871Z,4.5
2018-03-22T06:54:18.592Z,4.6
2018-03-22T06:55:21.023Z,4.5
2018-03-22T06:56:23.443Z,4.6
2018-03-22T06:57:26.154Z,4.5
2018-03-22T06:58:28.573Z,4.6
2018-03-22T06:59:30.994Z,4.8
2018-03-22T07:00:33.420Z,4.6
2018-03-22T07:01:35.842Z,4.6
2018-03-22T07:02:38.266Z,4.6
2018-03-22T07:03:40.979Z,4.5
2018-03-22T07:04:43.408Z,4.6
2018-03-22T07:05:45.833Z,4.5
2018-03-22T07:06:48.255Z,4.6
2018-03-22T07:07:50.698Z,4.7
2018-03-22T07:08:53.402Z,4.8
2018-03-22T07:09:55.824Z,4.7
2018-03-22T07:10:58.241Z,5.3
2018-03-22T07:12:00.667Z,4.6
2018-03-22T07:13:03.384Z,4.6
2018-03-22T07:14:05.803Z,4.6
2018-03-22T07:15:08.221Z,4.6
2018-03-22T07:16:10.940Z,4.5
2018-03-22T07:17:13.370Z,4.8
2018-03-22T07:18:15.786Z,4.8
2018-03-22T07:19:18.229Z,4.6
2018-03-22T07:20:20.954Z,4.7
2018-03-22T07:21:23.372Z,4.6
2018-03-22T07:22:26.107Z,4.7
2018-03-22T07:23:28.822Z,4.6
2018-03-22T07:24:31.250Z,4.6
2018-03-22T07:25:33.969Z,4.5
2018-03-22T07:26:36.382Z,4.5
2018-03-22T07:27:38.801Z,4.5
2018-03-22T07:28:41.247Z,4.7
2018-03-22T07:29:43.939Z,4.6
2018-03-22T07:30:46.650Z,4.5
2018-03-22T07:31:49.368Z,4.8
2018-03-22T07:32:51.813Z,4.7
2018-03-22T07:33:54.235Z,4.6
2018-03-22T07:34:56.666Z,4.6
2018-03-22T07:35:59.105Z,4.6
2018-03-22T07:37:01.541Z,4.6
2018-03-22T07:38:04.242Z,4.6
2018-03-22T07:39:06.664Z,4.8
2018-03-22T07:40:09.089Z,4.8
2018-03-22T07:41:11.522Z,4.7
2018-03-22T07:42:13.943Z,4.5
2018-03-22T07:43:16.355Z,4.6
2018-03-22T07:44:18.787Z,4.6
2018-03-22T07:45:21.496Z,4.7
2018-03-22T07:46:24.218Z,4.6
2018-03-22T07:47:26.632Z,4.6
2018-03-22T07:48:29.062Z,4.5
2018-03-22T07:49:31.480Z,4.7
2018-03-22T07:50:33.912Z,4.6
2018-03-22T07:51:36.336Z,4.6
2018-03-22T07:52:38.770Z,4.7
2018-03-22T07:53:41.175Z,4.6
2018-03-22T07:54:43.608Z,4.6
2018-03-22T07:55:46.032Z,4.5
2018-03-22T07:56:48.743Z,4.6
2018-03-22T07:57:51.169Z,4.6
2018-03-22T07:58:53.607Z,4.6
2018-03-22T07:59:56.305Z,4.6
2018-03-22T08:00:58.793Z,4.7
2018-03-22T08:02:01.209Z,4.7
2018-03-22T08:03:04.248Z,4.6
2018-03-22T08:04:06.673Z,4.7
2018-03-22T08:05:09.102Z,4.7
2018-03-22T08:06:11.534Z,4.6
2018-03-22T08:07:13.946Z,4.6
2018-03-22T08:08:16.664Z,4.7
2018-03-22T08:09:19.098Z,4.7
2018-03-22T08:10:21.805Z,4.6
2018-03-22T08:11:24.236Z,4.6
2018-03-22T08:12:26.696Z,4.7
2018-03-22T08:13:29.104Z,4.6
2018-03-22T08:14:31.543Z,4.6
2018-03-22T08:15:33.989Z,4.6
2018-03-22T08:16:36.704Z,4.6
2018-03-22T08:17:39.143Z,4.6
2018-03-22T08:18:41.626Z,4.8
2018-03-22T08:19:44.054Z,4.7
2018-03-22T08:20:46.489Z,4.6
2018-03-22T08:21:48.911Z,4.7
2018-03-22T08:22:51.361Z,4.6
2018-03-22T08:23:53.800Z,4.5
2018-03-22T08:24:56.219Z,4.6
2018-03-22T08:25:58.653Z,4.6
2018-03-22T08:27:01.111Z,4.7
2018-03-22T08:28:03.544Z,4.6
2018-03-22T08:29:06.275Z,4.6
2018-03-22T08:30:08.715Z,4.7
2018-03-22T08:31:11.440Z,4.6
2018-03-22T08:32:13.894Z,4.6
2018-03-22T08:33:16.329Z,4.6
2018-03-22T08:34:18.747Z,4.5
2018-03-22T08:35:21.214Z,4.6
2018-03-22T08:36:23.921Z,4.6
2018-03-22T08:37:26.349Z,4.7
2018-03-22T08:38:28.790Z,4.6
2018-03-22T08:39:31.217Z,4.6
2018-03-22T08:40:33.689Z,4.6
2018-03-22T08:41:36.191Z,4.7
2018-03-22T08:42:38.615Z,4.6
2018-03-22T08:43:41.047Z,4.6
2018-03-22T08:44:43.537Z,4.6
2018-03-22T08:45:45.961Z,4.6
2018-03-22T08:46:48.667Z,4.6
2018-03-22T08:47:51.106Z,4.7
2018-03-22T08:48:53.541Z,4.7
2018-03-22T08:49:55.973Z,4.7
2018-03-22T08:50:58.399Z,4.6
2018-03-22T08:52:00.823Z,4.6
2018-03-22T08:53:03.248Z,4.6
2018-03-22T08:54:05.676Z,4.6
2018-03-22T08:55:08.095Z,4.7
2018-03-22T08:56:10.512Z,4.7
2018-03-22T08:57:12.996Z,4.7
2018-03-22T08:58:15.433Z,4.6
2018-03-22T08:59:18.530Z,4.6
2018-03-22T09:00:21.956Z,4.8
2018-03-22T09:01:24.370Z,4.6
2018-03-22T09:02:27.105Z,4.6
2018-03-22T09:03:29.536Z,4.6
2018-03-22T09:04:31.986Z,4.7
2018-03-22T09:05:34.425Z,4.6
2018-03-22T09:06:36.848Z,4.6
2018-03-22T09:07:39.272Z,4.6
2018-03-22T09:08:41.712Z,4.7
2018-03-22T09:09:44.491Z,4.7
2018-03-22T09:10:47.185Z,4.7
2018-03-22T09:11:49.888Z,4.7
2018-03-22T09:12:52.604Z,4.6
2018-03-22T09:13:55.317Z,4.7
2018-03-22T09:14:57.746Z,4.7
2018-03-22T09:16:00.176Z,4.6
2018-03-22T09:17:02.615Z,4.6
2018-03-22T09:18:05.039Z,4.6
2018-03-22T09:19:07.467Z,4.6
2018-03-22T09:20:09.897Z,4.8
2018-03-22T09:21:12.327Z,4.8
2018-03-22T09:22:14.745Z,4.9
2018-03-22T09:23:17.194Z,4.6
2018-03-22T09:24:19.901Z,4.7
2018-03-22T09:25:22.330Z,4.7
2018-03-22T09:26:25.052Z,4.7
2018-03-22T09:27:27.482Z,4.6
2018-03-22T09:28:29.899Z,4.6
2018-03-22T09:29:32.339Z,4.8
2018-03-22T09:30:35.039Z,4.7
2018-03-22T09:31:37.755Z,4.7
2018-03-22T09:32:40.201Z,4.6
2018-03-22T09:33:42.623Z,4.7
2018-03-22T09:34:45.045Z,4.6
2018-03-22T09:35:47.472Z,4.7
2018-03-22T09:36:49.908Z,4.6
2018-03-22T09:37:52.337Z,4.6
2018-03-22T09:38:54.778Z,4.7
2018-03-22T09:39:57.480Z,4.7
2018-03-22T09:40:59.905Z,4.6
2018-03-22T09:42:02.635Z,4.8
2018-03-22T09:43:05.394Z,4.6
2018-03-22T09:44:07.839Z,4.8
2018-03-22T09:45:10.269Z,4.6
2018-03-22T09:46:12.698Z,4.6
2018-03-22T09:47:15.426Z,4.7
2018-03-22T09:48:18.129Z,4.6
2018-03-22T09:49:20.552Z,4.7
2018-03-22T09:50:22.983Z,4.7
2018-03-22T09:51:25.704Z,4.7
2018-03-22T09:52:28.126Z,4.7
2018-03-22T09:53:30.881Z,4.8
2018-03-22T09:54:33.296Z,4.7
2018-03-22T09:55:35.731Z,4.6
2018-03-22T09:56:38.170Z,4.8
2018-03-22T09:57:40.593Z,4.6
2018-03-22T09:58:43.019Z,4.6
2018-03-22T09:59:45.445Z,4.8
2018-03-22T10:00:47.872Z,4.8
2018-03-22T10:01:50.294Z,4.8
2018-03-22T10:02:52.787Z,4.7
2018-03-22T10:03:55.525Z,4.7
2018-03-22T10:04:57.955Z,4.7
2018-03-22T10:06:00.381Z,4.6
2018-03-22T10:07:02.830Z,4.7
2018-03-22T10:08:05.533Z,4.6
2018-03-22T10:09:07.958Z,4.7
2018-03-22T10:10:10.392Z,4.7
2018-03-22T10:11:12.807Z,4.8
2018-03-22T10:12:15.250Z,4.7
2018-03-22T10:13:17.959Z,4.7
2018-03-22T10:14:20.388Z,4.7
2018-03-22T10:15:22.814Z,4.7
2018-03-22T10:16:25.248Z,4.6
2018-03-22T10:17:27.955Z,4.6
2018-03-22T10:18:30.389Z,4.8
2018-03-22T10:19:33.619Z,4.8
2018-03-22T10:20:36.052Z,4.8
2018-03-22T10:21:39.112Z,4.7
2018-03-22T10:22:41.547Z,4.8
2018-03-22T10:23:43.965Z,4.9
2018-03-22T10:24:46.400Z,4.7
2018-03-22T10:25:48.830Z,4.7
2018-03-22T10:26:51.249Z,4.7
2018-03-22T10:27:53.676Z,4.7
2018-03-22T10:28:56.384Z,4.7
2018-03-22T10:29:58.801Z,4.9
2018-03-22T10:31:01.242Z,4.8
2018-03-22T10:32:03.673Z,4.8
2018-03-22T10:33:06.110Z,4.9
2018-03-22T10:34:08.533Z,4.8
2018-03-22T10:35:10.971Z,4.7
2018-03-22T10:36:13.708Z,4.7
2018-03-22T10:37:16.129Z,4.7
2018-03-22T10:38:18.871Z,4.7
2018-03-22T10:39:21.293Z,4.7
2018-03-22T10:40:23.742Z,4.8
2018-03-22T10:41:26.228Z,4.7
2018-03-22T10:42:28.716Z,4.8
2018-03-22T10:43:31.220Z,4.7
2018-03-22T10:44:34.015Z,4.7
2018-03-22T10:45:36.524Z,4.7
2018-03-22T10:46:39.028Z,4.7
2018-03-22T10:47:41.503Z,4.7
2018-03-22T10:48:43.993Z,4.7
2018-03-22T10:49:46.757Z,4.8
2018-03-22T10:50:49.543Z,4.8
2018-03-22T10:51:52.272Z,4.9
2018-03-22T10:52:54.710Z,4.8
2018-03-22T10:53:57.142Z,4.9
2018-03-22T10:54:59.584Z,4.8
2018-03-22T10:56:02.125Z,4.7
2018-03-22T10:57:04.591Z,4.7
2018-03-22T10:58:07.080Z,4.7
2018-03-22T10:59:09.561Z,4.7
2018-03-22T11:00:12.058Z,4.7
2018-03-22T11:01:14.558Z,4.7
2018-03-22T11:02:16.991Z,4.7
2018-03-22T11:03:19.499Z,4.8
2018-03-22T11:04:21.922Z,4.8
2018-03-22T11:05:24.383Z,4.7
2018-03-22T11:06:26.812Z,4.7
2018-03-22T11:07:29.242Z,4.7
2018-03-22T11:08:31.676Z,4.7
2018-03-22T11:09:34.103Z,4.8
2018-03-22T11:10:36.533Z,4.8
2018-03-22T11:11:39.249Z,4.8
2018-03-22T11:12:41.684Z,4.7
2018-03-22T11:13:44.403Z,4.7
2018-03-22T11:14:47.110Z,4.7
2018-03-22T11:15:49.544Z,4.7
2018-03-22T11:16:51.979Z,4.7
2018-03-22T11:17:54.409Z,4.7
2018-03-22T11:18:56.849Z,4.9
2018-03-22T11:19:59.552Z,4.8
2018-03-22T11:21:02.549Z,4.7
2018-03-22T11:22:04.987Z,4.8
2018-03-22T11:23:07.413Z,4.8
2018-03-22T11:24:09.835Z,4.7
2018-03-22T11:25:12.270Z,4.7
2018-03-22T11:26:14.695Z,4.7
2018-03-22T11:27:17.126Z,4.7
2018-03-22T11:28:19.848Z,4.7
2018-03-22T11:29:22.262Z,4.8
2018-03-22T11:30:24.698Z,4.8
2018-03-22T11:31:27.127Z,4.7
2018-03-22T11:32:29.555Z,4.8
2018-03-22T11:33:31.978Z,4.7
2018-03-22T11:34:34.422Z,4.7
2018-03-22T11:35:36.846Z,4.7
2018-03-22T11:36:39.267Z,4.7
2018-03-22T11:37:41.702Z,4.8
2018-03-22T11:38:44.131Z,4.8
2018-03-22T11:39:46.571Z,4.8
2018-03-22T11:40:49.013Z,4.7
2018-03-22T11:41:51.441Z,4.7
2018-03-22T11:42:54.164Z,4.7
2018-03-22T11:43:56.595Z,4.7
2018-03-22T11:44:59.011Z,4.7
2018-03-22T11:46:01.728Z,4.8
2018-03-22T11:47:04.461Z,4.8
2018-03-22T11:48:06.882Z,5
2018-03-22T11:49:09.316Z,4.8
2018-03-22T11:50:11.743Z,4.8
2018-03-22T11:51:14.763Z,4.8
2018-03-22T11:52:17.197Z,4.8
2018-03-22T11:53:19.640Z,4.8
2018-03-22T11:54:22.093Z,4.7
2018-03-22T11:55:24.812Z,4.7
2018-03-22T11:56:27.256Z,4.8
2018-03-22T11:57:29.687Z,4.9
2018-03-22T11:58:32.114Z,4.8
2018-03-22T11:59:34.548Z,4.8
2018-03-22T12:00:36.984Z,4.8
2018-03-22T12:01:39.407Z,4.8
2018-03-22T12:02:41.833Z,4.8
2018-03-22T12:03:44.264Z,4.7
2018-03-22T12:04:46.720Z,4.9
2018-03-22T12:05:49.125Z,4.9
2018-03-22T12:06:51.563Z,4.7
2018-03-22T12:07:53.982Z,4.8
2018-03-22T12:08:56.416Z,4.8
2018-03-22T12:09:58.856Z,4.7
2018-03-22T12:11:01.651Z,4.9
2018-03-22T12:12:04.357Z,4.8
2018-03-22T12:13:06.789Z,4.8
2018-03-22T12:14:09.214Z,4.8
2018-03-22T12:15:11.639Z,4.8
2018-03-22T12:16:14.077Z,4.9
2018-03-22T12:17:16.509Z,4.7
2018-03-22T12:18:19.010Z,4.7
2018-03-22T12:19:21.518Z,4.8
2018-03-22T12:20:23.981Z,4.7
2018-03-22T12:21:26.433Z,4.8
2018-03-22T12:22:29.145Z,4.8
2018-03-22T12:23:31.584Z,4.8
2018-03-22T12:24:34.742Z,4.8
2018-03-22T12:25:37.180Z,4.8
2018-03-22T12:26:39.602Z,4.8
2018-03-22T12:27:42.321Z,4.9
2018-03-22T12:28:45.046Z,4.8
2018-03-22T12:29:47.490Z,4.8
2018-03-22T12:30:49.900Z,4.7
2018-03-22T12:31:52.627Z,4.8
2018-03-22T12:32:55.048Z,4.8
2018-03-22T12:33:57.484Z,4.9
2018-03-22T12:34:59.916Z,4.9
2018-03-22T12:36:02.355Z,4.8
2018-03-22T12:37:04.791Z,4.8
2018-03-22T12:38:07.527Z,4.8
2018-03-22T12:39:09.959Z,4.8
2018-03-22T12:40:12.391Z,4.8
2018-03-22T12:41:14.852Z,4.8
2018-03-22T12:42:17.288Z,4.9
2018-03-22T12:43:19.779Z,4.8
2018-03-22T12:44:22.158Z,4.8
2018-03-22T12:45:24.589Z,4.7
2018-03-22T12:46:27.017Z,4.8
2018-03-22T12:47:29.492Z,4.8
2018-03-22T12:48:32.035Z,4.8
2018-03-22T12:49:34.467Z,4.9
2018-03-22T12:50:37.187Z,4.9
2018-03-22T12:51:39.628Z,4.9
2018-03-22T12:52:42.066Z,4.8
2018-03-22T12:53:44.496Z,4.8
2018-03-22T12:54:46.931Z,4.8
2018-03-22T12:55:49.365Z,4.8
2018-03-22T12:56:51.798Z,4.9
2018-03-22T12:57:54.231Z,4.9
2018-03-22T12:58:56.951Z,4.8
2018-03-22T12:59:59.728Z,4.9
2018-03-22T13:01:02.148Z,4.9
2018-03-22T13:02:04.893Z,4.9
2018-03-22T13:03:07.614Z,4.8
2018-03-22T13:04:10.052Z,4.8
2018-03-22T13:05:12.788Z,4.8
2018-03-22T13:06:15.239Z,4.8
2018-03-22T13:07:17.662Z,4.8
2018-03-22T13:08:20.387Z,4.8
2018-03-22T13:09:22.852Z,4.9
2018-03-22T13:10:25.613Z,4.8
2018-03-22T13:11:28.094Z,4.9
2018-03-22T13:12:31.391Z,4.9
2018-03-22T13:13:33.904Z,4.9
2018-03-22T13:14:36.379Z,4.9
2018-03-22T13:15:38.892Z,4.8
2018-03-22T13:16:41.673Z,4.8
2018-03-22T13:17:44.431Z,4.8
2018-03-22T13:18:47.101Z,4.8
2018-03-22T13:19:49.539Z,4.8
2018-03-22T13:20:52.029Z,4.8
2018-03-22T13:21:54.479Z,4.8
2018-03-22T13:22:57.209Z,5
2018-03-22T13:23:59.636Z,4.8
2018-03-22T13:25:02.067Z,4.8
2018-03-22T13:26:04.493Z,4.9
2018-03-22T13:27:06.939Z,4.9
2018-03-22T13:28:09.665Z,5
2018-03-22T13:29:12.696Z,4.8
2018-03-22T13:30:15.132Z,4.8
2018-03-22T13:31:17.627Z,4.8
2018-03-22T13:32:20.381Z,4.8
2018-03-22T13:33:23.426Z,4.9
2018-03-22T13:34:25.914Z,4.8
2018-03-22T13:35:28.639Z,4.8
2018-03-22T13:36:31.070Z,5
2018-03-22T13:37:33.496Z,4.9
2018-03-22T13:38:35.926Z,4.8
2018-03-22T13:39:38.640Z,4.8
2018-03-22T13:40:41.094Z,4.9
2018-03-22T13:41:43.525Z,4.8
2018-03-22T13:42:45.952Z,4.8
2018-03-22T13:43:48.386Z,4.9
2018-03-22T13:44:50.822Z,4.9
2018-03-22T13:45:53.321Z,5
2018-03-22T13:46:56.049Z,4.9
2018-03-22T13:47:58.484Z,4.9
2018-03-22T13:49:00.913Z,4.9
2018-03-22T13:50:03.441Z,5
2018-03-22T13:51:06.189Z,5
2018-03-22T13:52:08.691Z,4.8
2018-03-22T13:53:11.196Z,4.9
2018-03-22T13:54:13.691Z,5.1
2018-03-22T13:55:16.514Z,4.9
2018-03-22T13:56:18.973Z,5
2018-03-22T13:57:21.446Z,4.9
2018-03-22T13:58:23.948Z,4.9
2018-03-22T13:59:26.451Z,5
2018-03-22T14:00:29.329Z,4.9
2018-03-22T14:01:31.795Z,4.9
2018-03-22T14:02:34.296Z,4.9
2018-03-22T14:03:37.124Z,4.9
2018-03-22T14:04:39.842Z,5
2018-03-22T14:05:42.371Z,5
2018-03-22T14:06:44.819Z,4.9
2018-03-22T14:07:47.252Z,5
2018-03-22T14:08:49.960Z,5
2018-03-22T14:09:52.400Z,4.9
2018-03-22T14:10:54.827Z,4.9
2018-03-22T14:11:57.275Z,5
2018-03-22T14:12:59.706Z,4.9
2018-03-22T14:14:02.122Z,5
2018-03-22T14:15:04.869Z,5.3
2018-03-22T14:16:07.313Z,5.1
2018-03-22T14:17:10.028Z,5
2018-03-22T14:18:12.791Z,4.9
2018-03-22T14:19:15.488Z,4.9
2018-03-22T14:20:18.209Z,4.9
2018-03-22T14:21:20.655Z,4.8
2018-03-22T14:22:23.389Z,5